createdAt,value
2019-03-31T00:02:06.575Z,100201.64
2019-03-31T00:04:34.988Z,100205.22
2019-03-31T00:07:03.403Z,100202.75
2019-03-31T00:09:31.821Z,100198.56
2019-03-31T00:12:00.268Z,100200.07
2019-03-31T00:14:28.731Z,100201.73
2019-03-31T00:16:57.137Z,100199.58
2019-03-31T00:19:25.539Z,100195.97
2019-03-31T00:21:53.935Z,100195.72
2019-03-31T00:24:22.326Z,100202.61
2019-03-31T00:26:50.732Z,100198.95
2019-03-31T00:29:19.204Z,100199.34
2019-03-31T00:31:47.671Z,100198.40
2019-03-31T00:34:16.307Z,100201.67
2019-03-31T00:36:44.705Z,100198.70
2019-03-31T00:39:13.103Z,100136.02
2019-03-31T00:41:41.523Z,100200.75
2019-03-31T00:44:10.046Z,100201.09
2019-03-31T00:46:38.431Z,100196.45
2019-03-31T00:49:06.968Z,100191.47
2019-03-31T00:51:35.378Z,100192.80
2019-03-31T00:54:03.898Z,100191.12
2019-03-31T00:56:33.924Z,100199.34
2019-03-31T00:59:02.378Z,100197.47
2019-03-31T01:01:38.467Z,100196.70
2019-03-31T01:04:07.462Z,100196.34
2019-03-31T01:06:36.872Z,100197.13
2019-03-31T01:09:09.935Z,100199.56
2019-03-31T01:11:38.397Z,100192.34
2019-03-31T01:14:06.857Z,100197.56
2019-03-31T01:16:35.263Z,100191.11
2019-03-31T01:19:04.135Z,100194.16
2019-03-31T01:21:32.614Z,100193.70
2019-03-31T01:24:01.005Z,100196.20
2019-03-31T01:26:29.834Z,100193.80
2019-03-31T01:28:58.457Z,100200.09
2019-03-31T01:31:28.442Z,100197.17
2019-03-31T01:33:57.062Z,100195.59
2019-03-31T01:36:25.740Z,100197.73
2019-03-31T01:38:54.127Z,100201.40
2019-03-31T01:41:22.656Z,100202.72
2019-03-31T01:43:51.139Z,100204.66
2019-03-31T01:46:21.650Z,100201.48
2019-03-31T01:48:50.210Z,100199.07
2019-03-31T01:51:18.595Z,100195.72
2019-03-31T01:53:47.027Z,100194.73
2019-03-31T01:56:15.489Z,100199.06
2019-03-31T01:58:43.931Z,100197.93
2019-03-31T02:01:14.035Z,100201.53
2019-03-31T02:03:42.598Z,100193.31
2019-03-31T02:06:10.982Z,100195.16
2019-03-31T02:08:39.425Z,100195.89
2019-03-31T02:11:07.818Z,100195.44
2019-03-31T02:13:36.219Z,100187.13
2019-03-31T02:16:04.693Z,100197.61
2019-03-31T02:18:33.115Z,100175.53
2019-03-31T02:21:01.850Z,100192.16
2019-03-31T02:23:30.309Z,100195.63
2019-03-31T02:25:58.714Z,100195.42
2019-03-31T02:28:27.151Z,100193.25
2019-03-31T02:30:55.600Z,100196.06
2019-03-31T02:33:23.995Z,100124.11
2019-03-31T02:35:52.386Z,100186.55
2019-03-31T02:38:20.816Z,100190.87
2019-03-31T02:40:49.218Z,100189.16
2019-03-31T02:43:17.683Z,100197.61
2019-03-31T02:45:46.093Z,100193.48
2019-03-31T02:48:14.473Z,100188.82
2019-03-31T02:50:47.959Z,100190.14
2019-03-31T02:53:17.947Z,100190.48
2019-03-31T02:55:46.888Z,100192.77
2019-03-31T02:58:16.026Z,100197.90
2019-03-31T03:00:45.133Z,100190.22
2019-03-31T03:03:15.687Z,100136.21
2019-03-31T03:05:45.374Z,100192.19
2019-03-31T03:08:14.498Z,100190.42
2019-03-31T03:10:44.403Z,100189.59
2019-03-31T03:13:14.342Z,100190.09
2019-03-31T03:15:51.699Z,100194.86
2019-03-31T03:18:20.148Z,100195.15
2019-03-31T03:20:48.598Z,100195.31
2019-03-31T03:23:17.065Z,100193.17
2019-03-31T03:25:55.795Z,100188.75
2019-03-31T03:28:15.574Z,100196.14
2019-03-31T03:30:44.173Z,100194.60
2019-03-31T03:33:16.292Z,100198.41
2019-03-31T03:35:42.710Z,100198.95
2019-03-31T03:38:11.103Z,100198.28
2019-03-31T03:40:39.508Z,100199.02
2019-03-31T03:43:07.896Z,100136.34
2019-03-31T03:45:36.309Z,100194.52
2019-03-31T03:48:04.856Z,100183.45
2019-03-31T03:50:33.252Z,100189.55
2019-03-31T03:53:01.652Z,100190.66
2019-03-31T03:55:30.117Z,100191.02
2019-03-31T03:57:58.734Z,100195.59
2019-03-31T04:00:27.125Z,100194.33
2019-03-31T04:02:55.522Z,100188.59
2019-03-31T04:05:23.909Z,100195.86
2019-03-31T04:07:52.441Z,100195.94
2019-03-31T04:10:43.110Z,100188.05
2019-03-31T04:13:11.755Z,100197.31
2019-03-31T04:15:40.195Z,100190.05
2019-03-31T04:18:08.696Z,100191.31
2019-03-31T04:20:39.335Z,100190.34
2019-03-31T04:23:07.237Z,100195.52
2019-03-31T04:25:35.814Z,100196.70
2019-03-31T04:28:04.237Z,100196.54
2019-03-31T04:30:32.618Z,100191.85
2019-03-31T04:33:01.023Z,100197.94
2019-03-31T04:35:29.428Z,100189.41
2019-03-31T04:37:57.839Z,100193.92
2019-03-31T04:40:26.304Z,100204.69
2019-03-31T04:42:54.727Z,100204.63
2019-03-31T04:45:23.183Z,100210.14
2019-03-31T04:47:51.603Z,100203.80
2019-03-31T04:50:20.062Z,100199.70
2019-03-31T04:52:48.481Z,100197.86
2019-03-31T04:55:16.871Z,100164.25
2019-03-31T04:57:45.262Z,100198.57
2019-03-31T05:03:35.358Z,100204.78
2019-03-31T05:06:03.820Z,100200.84
2019-03-31T05:08:32.236Z,100202.77
2019-03-31T05:11:00.622Z,100208.28
2019-03-31T05:13:29.034Z,100203.22
2019-03-31T05:15:57.506Z,100201.30
2019-03-31T05:18:25.950Z,100204.98
2019-03-31T05:20:54.450Z,100201.88
2019-03-31T05:23:22.842Z,100204.23
2019-03-31T05:25:51.318Z,100207.66
2019-03-31T05:28:19.795Z,100205.69
2019-03-31T05:30:48.183Z,100205.47
2019-03-31T05:33:16.581Z,100202.92
2019-03-31T05:35:45.065Z,100202.16
2019-03-31T05:38:13.460Z,100204.57
2019-03-31T05:40:42.022Z,100212.45
2019-03-31T05:43:10.398Z,100213.02
2019-03-31T05:45:38.843Z,100212.44
2019-03-31T05:48:07.228Z,100217.55
2019-03-31T05:50:35.723Z,100225.59
2019-03-31T05:53:04.188Z,100210.06
2019-03-31T05:55:32.606Z,100210.76
2019-03-31T05:58:01.198Z,100210.14
2019-03-31T06:00:36.200Z,100220.67
2019-03-31T06:03:04.727Z,100221.98
2019-03-31T06:05:33.276Z,100221.80
2019-03-31T06:08:01.677Z,100216.34
2019-03-31T06:10:30.154Z,100212.95
2019-03-31T06:12:58.716Z,100213.61
2019-03-31T06:15:27.246Z,100216.23
2019-03-31T06:17:55.823Z,100213.34
2019-03-31T06:20:24.292Z,100221.66
2019-03-31T06:22:52.696Z,100220.77
2019-03-31T06:25:21.197Z,100221.22
2019-03-31T06:27:49.584Z,100217.33
2019-03-31T06:30:18.510Z,100218.84
2019-03-31T06:32:46.935Z,100220.30
2019-03-31T06:35:15.333Z,100215.06
2019-03-31T06:37:43.741Z,100224.53
2019-03-31T06:40:12.225Z,100224.67
2019-03-31T06:42:40.745Z,100229.98
2019-03-31T06:45:09.484Z,100224.79
2019-03-31T06:47:37.980Z,100217.05
2019-03-31T06:50:07.523Z,100208.88
2019-03-31T06:52:36.015Z,100209.59
2019-03-31T06:55:08.368Z,100208.14
2019-03-31T06:57:36.802Z,100208.69
2019-03-31T07:00:07.729Z,100216.86
2019-03-31T07:02:36.183Z,100213.31
2019-03-31T07:05:07.727Z,100213.88
2019-03-31T07:07:36.433Z,100201.72
2019-03-31T07:10:06.711Z,100205.66
2019-03-31T07:12:35.138Z,100202.80
2019-03-31T07:15:05.681Z,100205.61
2019-03-31T07:17:34.157Z,100209.45
2019-03-31T07:20:02.637Z,100204.88
2019-03-31T07:22:31.123Z,100207.69
2019-03-31T07:24:59.601Z,100207.81
2019-03-31T07:27:28.103Z,100206.87
2019-03-31T07:29:56.476Z,100204.55
2019-03-31T07:32:24.876Z,100207.34
2019-03-31T07:34:53.295Z,100208.01
2019-03-31T07:37:21.713Z,100198.06
2019-03-31T07:39:50.455Z,100202.95
2019-03-31T07:42:18.984Z,100204.26
2019-03-31T07:44:47.426Z,100203.78
2019-03-31T07:47:15.890Z,100197.99
2019-03-31T07:49:44.345Z,100202.62
2019-03-31T07:52:12.729Z,100203.21
2019-03-31T07:54:41.218Z,100194.68
2019-03-31T07:57:09.667Z,100198.20
2019-03-31T07:59:38.106Z,100192.41
2019-03-31T08:02:06.827Z,100184.28
2019-03-31T08:04:35.270Z,100188.51
2019-03-31T08:07:03.705Z,100191.33
2019-03-31T08:09:32.140Z,100189.14
2019-03-31T08:12:00.646Z,100184.41
2019-03-31T08:14:31.222Z,100182.64
2019-03-31T08:16:59.304Z,100189.30
2019-03-31T08:19:27.811Z,100185.02
2019-03-31T08:21:56.429Z,100192.19
2019-03-31T08:24:24.912Z,100185.59
2019-03-31T08:26:53.397Z,100184.34
2019-03-31T08:29:21.796Z,100185.15
2019-03-31T08:31:50.219Z,100180.53
2019-03-31T08:34:18.894Z,100185.05
2019-03-31T08:36:47.339Z,100181.13
2019-03-31T08:39:15.760Z,100173.90
2019-03-31T08:41:44.169Z,100179.17
2019-03-31T08:44:12.575Z,100183.04
2019-03-31T08:46:40.987Z,100180.63
2019-03-31T08:49:09.573Z,100176.16
2019-03-31T08:51:38.050Z,100177.66
2019-03-31T08:54:06.469Z,100184.18
2019-03-31T08:56:34.890Z,100175.53
2019-03-31T08:59:03.326Z,100180.25
2019-03-31T09:01:31.828Z,100173.39
2019-03-31T09:04:00.251Z,100170.03
2019-03-31T09:06:28.683Z,100161.95
2019-03-31T09:08:57.173Z,100168.59
2019-03-31T09:11:25.750Z,100159.77
2019-03-31T09:13:54.157Z,100158.92
2019-03-31T09:16:22.782Z,100157.08
2019-03-31T09:18:51.311Z,100150.32
2019-03-31T09:21:21.922Z,100151.80
2019-03-31T09:23:50.508Z,100156.86
2019-03-31T09:26:18.990Z,100153.39
2019-03-31T09:28:47.576Z,100155.83
2019-03-31T09:31:16.372Z,100148.80
2019-03-31T09:33:44.875Z,100153.88
2019-03-31T09:36:16.617Z,100150.39
2019-03-31T09:38:43.630Z,100153.13
2019-03-31T09:41:12.050Z,100154.05
2019-03-31T09:43:40.731Z,100151.52
2019-03-31T09:46:09.155Z,100146.78
2019-03-31T09:48:37.679Z,100152.41
2019-03-31T09:51:06.296Z,100145.91
2019-03-31T09:53:34.736Z,100130.11
2019-03-31T09:56:03.209Z,100133.80
2019-03-31T09:58:31.659Z,100126.95
2019-03-31T10:01:00.073Z,100095.36
2019-03-31T10:03:28.611Z,100096.11
2019-03-31T10:06:09.935Z,100124.05
2019-03-31T10:08:27.521Z,100125.53
2019-03-31T10:10:55.994Z,100120.85
2019-03-31T10:13:24.444Z,100129.91
2019-03-31T10:15:52.923Z,100122.22
2019-03-31T10:18:21.378Z,100108.94
2019-03-31T10:20:49.983Z,100107.80
2019-03-31T10:23:18.504Z,100104.18
2019-03-31T10:25:46.972Z,100099.55
2019-03-31T10:28:15.411Z,100103.38
2019-03-31T10:30:44.175Z,100092.94
2019-03-31T10:33:12.598Z,100093.69
2019-03-31T10:35:41.001Z,100088.88
2019-03-31T10:38:09.683Z,100082.03
2019-03-31T10:40:38.266Z,100086.92
2019-03-31T10:43:06.862Z,100083.05
2019-03-31T10:45:35.312Z,100091.52
2019-03-31T10:48:03.915Z,100087.48
2019-03-31T10:50:32.366Z,100073.36
2019-03-31T10:53:00.835Z,100073.09
2019-03-31T10:55:29.251Z,100071.81
2019-03-31T10:57:57.666Z,100068.05
2019-03-31T11:00:37.076Z,100064.56
2019-03-31T11:03:08.053Z,100068.03
2019-03-31T11:05:37.106Z,100065.46
2019-03-31T11:08:05.757Z,100071.20
2019-03-31T11:10:34.542Z,100067.29
2019-03-31T11:13:03.116Z,100060.13
2019-03-31T11:15:31.610Z,100058.56
2019-03-31T11:17:59.997Z,100068.95
2019-03-31T11:20:28.624Z,100064.63
2019-03-31T11:22:58.681Z,100065.28
2019-03-31T11:25:29.370Z,100062.69
2019-03-31T11:27:57.518Z,100056.36
2019-03-31T11:30:26.033Z,100050.67
2019-03-31T11:32:54.616Z,100050.22
2019-03-31T11:35:23.036Z,100050.64
2019-03-31T11:37:51.518Z,100051.33
2019-03-31T11:40:20.211Z,100053.56
2019-03-31T11:42:48.772Z,100058.44
2019-03-31T11:45:17.916Z,100051.44
2019-03-31T11:47:46.425Z,100058.23
2019-03-31T11:50:15.340Z,100053.98
2019-03-31T11:52:43.745Z,100048.31
2019-03-31T11:55:12.356Z,100051.56
2019-03-31T11:57:40.835Z,100048.16
2019-03-31T12:00:11.822Z,100044.84
2019-03-31T12:02:40.401Z,100043.98
2019-03-31T12:05:09.705Z,100041.48
2019-03-31T12:07:46.717Z,100043.19
2019-03-31T12:10:08.912Z,100042.97
2019-03-31T12:12:37.326Z,100045.00
2019-03-31T12:15:08.317Z,99969.19
2019-03-31T12:17:36.805Z,100035.44
2019-03-31T12:20:09.403Z,100029.76
2019-03-31T12:22:37.840Z,100035.13
2019-03-31T12:25:07.804Z,100030.40
2019-03-31T12:27:36.238Z,100031.19
2019-03-31T12:30:07.255Z,100028.38
2019-03-31T12:32:38.326Z,100033.53
2019-03-31T12:35:07.946Z,100036.30
2019-03-31T12:37:42.865Z,100036.44
2019-03-31T12:40:30.736Z,100024.83
2019-03-31T12:42:59.298Z,100022.75
2019-03-31T12:45:27.710Z,100013.98
2019-03-31T12:47:57.129Z,100018.41
2019-03-31T12:50:25.556Z,100011.44
2019-03-31T12:52:53.998Z,100012.91
2019-03-31T12:55:22.407Z,100005.95
2019-03-31T12:57:51.967Z,100006.62
2019-03-31T13:00:20.811Z,100001.09
2019-03-31T13:02:49.367Z,100001.45
2019-03-31T13:05:17.799Z,100002.26
2019-03-31T13:07:56.113Z,100001.14
2019-03-31T13:10:16.511Z,100001.64
2019-03-31T13:12:45.012Z,100004.03
2019-03-31T13:15:13.579Z,99995.69
2019-03-31T13:17:41.990Z,99990.81
2019-03-31T13:20:10.860Z,99992.81
2019-03-31T13:22:39.363Z,99987.41
2019-03-31T13:25:08.239Z,99980.43
2019-03-31T13:27:55.979Z,99983.22
2019-03-31T13:30:24.425Z,99981.89
2019-03-31T13:32:52.878Z,99984.11
2019-03-31T13:35:21.590Z,99980.73
2019-03-31T13:37:49.997Z,99977.03
2019-03-31T13:40:18.630Z,99970.36
2019-03-31T13:42:47.102Z,99968.64
2019-03-31T13:45:15.705Z,99957.80
2019-03-31T13:47:44.216Z,99968.13
2019-03-31T13:50:13.087Z,99963.69
2019-03-31T13:52:41.665Z,99960.47
2019-03-31T13:55:10.352Z,99959.52
2019-03-31T13:57:40.113Z,99958.27
2019-03-31T14:00:10.692Z,99952.83
2019-03-31T14:02:39.946Z,99947.22
2019-03-31T14:05:08.822Z,99953.23
2019-03-31T14:07:37.447Z,99946.52
2019-03-31T14:10:07.807Z,99947.77
2019-03-31T14:12:36.290Z,99952.57
2019-03-31T14:15:18.435Z,99939.45
2019-03-31T14:17:38.008Z,99944.42
2019-03-31T14:20:07.240Z,99949.59
2019-03-31T14:22:36.075Z,99950.55
2019-03-31T14:25:05.904Z,99947.05
2019-03-31T14:27:34.339Z,99943.23
2019-03-31T14:30:03.369Z,99945.23
2019-03-31T14:32:31.808Z,99942.16
2019-03-31T14:35:00.390Z,99936.19
2019-03-31T14:37:28.805Z,99943.99
2019-03-31T14:39:57.534Z,99901.14
2019-03-31T14:42:26.122Z,99936.14
2019-03-31T14:44:54.519Z,99933.97
2019-03-31T14:47:23.067Z,99933.69
2019-03-31T14:49:51.505Z,99937.02
2019-03-31T14:52:27.342Z,99932.19
2019-03-31T14:54:50.144Z,99932.54
2019-03-31T14:57:18.812Z,99924.14
2019-03-31T14:59:47.545Z,99917.97
2019-03-31T15:02:16.422Z,99916.98
2019-03-31T15:04:45.529Z,99919.17
2019-03-31T15:07:14.044Z,99919.14
2019-03-31T15:09:42.592Z,99916.66
2019-03-31T15:12:11.244Z,99911.36
2019-03-31T15:14:39.645Z,99912.34
2019-03-31T15:17:08.063Z,99911.98
2019-03-31T15:19:36.811Z,99920.36
2019-03-31T15:22:05.532Z,99917.09
2019-03-31T15:24:34.391Z,99917.37
2019-03-31T15:27:03.810Z,99904.21
2019-03-31T15:29:32.229Z,99912.05
2019-03-31T15:32:00.729Z,99920.76
2019-03-31T15:34:29.215Z,99879.38
2019-03-31T15:36:57.615Z,99923.07
2019-03-31T15:39:26.129Z,99917.30
2019-03-31T15:41:54.548Z,99914.33
2019-03-31T15:44:23.008Z,99921.25
2019-03-31T15:46:51.493Z,99915.02
2019-03-31T15:49:19.916Z,99917.15
2019-03-31T15:51:49.581Z,99917.69
2019-03-31T15:54:18.041Z,99920.13
2019-03-31T15:56:46.824Z,99923.45
2019-03-31T15:59:15.233Z,99920.78
2019-03-31T16:01:43.735Z,99922.63
2019-03-31T16:04:12.287Z,99919.88
2019-03-31T16:06:40.792Z,99922.80
2019-03-31T16:09:22.692Z,99918.13
2019-03-31T16:11:52.889Z,99924.58
2019-03-31T16:14:09.854Z,99917.98
2019-03-31T16:16:38.451Z,99928.75
2019-03-31T16:19:06.859Z,99925.03
2019-03-31T16:21:35.416Z,99929.44
2019-03-31T16:24:04.163Z,99926.86
2019-03-31T16:26:32.642Z,99927.79
2019-03-31T16:29:01.149Z,99932.87
2019-03-31T16:31:29.595Z,99929.61
2019-03-31T16:33:58.253Z,99940.05
2019-03-31T16:36:26.966Z,99929.16
2019-03-31T16:38:55.353Z,99934.52
2019-03-31T16:41:23.743Z,99927.70
2019-03-31T16:43:52.219Z,99932.90
2019-03-31T16:46:20.842Z,99933.59
2019-03-31T16:48:49.376Z,99935.07
2019-03-31T16:51:17.861Z,99935.80
2019-03-31T16:53:46.398Z,99942.67
2019-03-31T16:56:14.837Z,99944.31
2019-03-31T16:58:43.260Z,99936.22
2019-03-31T17:01:12.073Z,99942.74
2019-03-31T17:03:40.770Z,99945.84
2019-03-31T17:06:09.242Z,99945.78
2019-03-31T17:08:37.746Z,99945.09
2019-03-31T17:11:06.452Z,99946.32
2019-03-31T17:13:34.991Z,99952.62
2019-03-31T17:16:03.484Z,99952.03
2019-03-31T17:18:32.061Z,99943.71
2019-03-31T17:21:00.607Z,99950.75
2019-03-31T17:23:29.206Z,99949.52
2019-03-31T17:25:57.738Z,99929.46
2019-03-31T17:28:26.271Z,99955.50
2019-03-31T17:30:54.706Z,99942.73
2019-03-31T17:33:23.589Z,99951.31
2019-03-31T17:35:52.133Z,99942.73
2019-03-31T17:38:20.695Z,99944.42
2019-03-31T17:40:49.262Z,99949.19
2019-03-31T17:43:17.816Z,99954.38
2019-03-31T17:45:46.583Z,99951.00
2019-03-31T17:48:14.976Z,99947.27
2019-03-31T17:50:43.519Z,99954.52
2019-03-31T17:53:11.899Z,99949.91
2019-03-31T17:55:40.628Z,99955.04
2019-03-31T17:58:09.033Z,99952.52
2019-03-31T18:00:37.449Z,99955.42
2019-03-31T18:03:05.845Z,99961.95
2019-03-31T18:05:34.312Z,99960.52
2019-03-31T18:08:02.879Z,99914.08
2019-03-31T18:10:31.309Z,99964.22
2019-03-31T18:12:59.797Z,99979.04
2019-03-31T18:15:28.384Z,99973.27
2019-03-31T18:17:56.905Z,99970.63
2019-03-31T18:20:25.422Z,99979.84
2019-03-31T18:22:53.838Z,99983.11
2019-03-31T18:25:22.335Z,99988.52
2019-03-31T18:27:50.737Z,99996.09
2019-03-31T18:30:19.521Z,99990.34
2019-03-31T18:32:48.009Z,99994.39
2019-03-31T18:35:16.973Z,99995.97
2019-03-31T18:37:45.628Z,99999.97
2019-03-31T18:40:14.119Z,100005.95
2019-03-31T18:42:42.749Z,100011.59
2019-03-31T18:45:11.401Z,100010.98
2019-03-31T18:47:39.899Z,100014.60
2019-03-31T18:50:08.673Z,100019.63
2019-03-31T18:52:37.138Z,100023.01
2019-03-31T18:55:13.785Z,100034.63
2019-03-31T18:57:43.846Z,100032.88
2019-03-31T19:00:17.277Z,100030.41
2019-03-31T19:03:03.890Z,100029.28
2019-03-31T19:05:50.470Z,100036.98
2019-03-31T19:08:23.331Z,100035.84
2019-03-31T19:11:02.924Z,100044.66
2019-03-31T19:16:35.957Z,100043.21
2019-03-31T19:19:12.085Z,100050.91
2019-03-31T19:21:59.437Z,100054.25
2019-03-31T19:25:04.488Z,100059.98
2019-03-31T19:27:34.652Z,100066.30
2019-03-31T19:30:05.181Z,100072.25
2019-03-31T19:32:38.340Z,100071.42
2019-03-31T19:35:12.156Z,100075.77
2019-03-31T19:37:42.280Z,100083.55
2019-03-31T19:40:20.875Z,100079.75
2019-03-31T19:43:02.939Z,100088.14
2019-03-31T19:45:49.974Z,100084.66
2019-03-31T19:48:36.029Z,100099.44
2019-03-31T19:51:06.341Z,100105.16
2019-03-31T19:53:48.439Z,100104.13
2019-03-31T19:56:18.556Z,100105.02
2019-03-31T19:58:51.783Z,100110.66
2019-03-31T20:03:50.453Z,100117.11
2019-03-31T20:06:32.937Z,100111.61
2019-03-31T20:09:08.995Z,100118.77
2019-03-31T20:11:39.111Z,100119.06
2019-03-31T20:14:12.163Z,100124.34
2019-03-31T20:16:48.442Z,100123.99
2019-03-31T20:19:36.660Z,100133.25
2019-03-31T20:22:18.978Z,100136.73
2019-03-31T20:24:54.853Z,100136.95
2019-03-31T20:27:27.385Z,100152.40
2019-03-31T20:30:03.523Z,100146.38
2019-03-31T20:32:36.433Z,100154.14
2019-03-31T20:35:11.086Z,100162.25
2019-03-31T20:37:47.247Z,100159.05
2019-03-31T20:40:29.025Z,100163.09
2019-03-31T20:43:04.851Z,100160.69
2019-03-31T20:45:33.361Z,100168.61
2019-03-31T20:48:01.853Z,100168.92
2019-03-31T20:50:30.329Z,100168.75
2019-03-31T20:52:58.739Z,100178.25
2019-03-31T20:55:27.274Z,100177.45
2019-03-31T20:57:55.776Z,100174.74
2019-03-31T21:00:24.319Z,100178.36
2019-03-31T21:02:52.747Z,100184.19
2019-03-31T21:05:21.249Z,100174.06
2019-03-31T21:07:49.690Z,100180.58
2019-03-31T21:10:18.113Z,100184.80
2019-03-31T21:12:46.565Z,100182.41
2019-03-31T21:15:15.184Z,100190.44
2019-03-31T21:17:43.638Z,100199.87
2019-03-31T21:20:12.121Z,100196.57
2019-03-31T21:22:40.616Z,100194.64
2019-03-31T21:25:09.279Z,100199.03
2019-03-31T21:27:37.708Z,100193.80
2019-03-31T21:30:07.567Z,100199.63
2019-03-31T21:32:36.076Z,100215.87
2019-03-31T21:35:06.134Z,100207.43
2019-03-31T21:37:34.572Z,100208.51
2019-03-31T21:40:03.173Z,100214.22
2019-03-31T21:42:31.710Z,100211.13
2019-03-31T21:45:00.167Z,100217.23
2019-03-31T21:47:28.611Z,100215.70
2019-03-31T21:49:57.029Z,100212.13
2019-03-31T21:52:25.418Z,100220.52
2019-03-31T21:54:54.400Z,100220.91
2019-03-31T21:57:22.827Z,100219.44
2019-03-31T21:59:51.240Z,100219.86
2019-03-31T22:02:20.094Z,100225.34
2019-03-31T22:04:48.538Z,100219.95
2019-03-31T22:07:16.946Z,100223.78
2019-03-31T22:09:45.412Z,100207.77
2019-03-31T22:12:13.876Z,100220.56
2019-03-31T22:14:42.334Z,100216.84
2019-03-31T22:17:10.749Z,100216.84
2019-03-31T22:19:39.173Z,100223.90
2019-03-31T22:22:07.616Z,100223.90
2019-03-31T22:24:36.035Z,100222.25
2019-03-31T22:27:04.544Z,100222.36
2019-03-31T22:29:33.172Z,100222.36
2019-03-31T22:32:01.583Z,100220.53
2019-03-31T22:34:30.095Z,100229.39
2019-03-31T22:36:58.533Z,100229.39
2019-03-31T22:39:27.054Z,100224.84
2019-03-31T22:41:55.468Z,100224.84
2019-03-31T22:44:23.897Z,100221.17
2019-03-31T22:46:54.524Z,100221.17
2019-03-31T22:49:23.052Z,100224.77
2019-03-31T22:51:51.460Z,100227.81
2019-03-31T22:54:19.885Z,100232.96
2019-03-31T22:56:48.740Z,100238.97
2019-03-31T22:59:17.278Z,100232.18
2019-03-31T23:01:45.748Z,100235.01
2019-03-31T23:04:14.217Z,100237.04
2019-03-31T23:06:42.632Z,100239.53
2019-03-31T23:09:11.032Z,100232.28
2019-03-31T23:11:39.466Z,100232.45
2019-03-31T23:14:07.944Z,100232.63
2019-03-31T23:16:36.345Z,100224.05
2019-03-31T23:19:04.814Z,100226.52
2019-03-31T23:21:33.494Z,100224.06
2019-03-31T23:24:02.051Z,100221.25
2019-03-31T23:26:30.577Z,100214.80
2019-03-31T23:28:59.015Z,100215.82
2019-03-31T23:31:27.449Z,100217.64
2019-03-31T23:33:55.919Z,100214.66
2019-03-31T23:36:24.440Z,100214.86
2019-03-31T23:38:52.891Z,100156.20
2019-03-31T23:41:21.313Z,100209.23
2019-03-31T23:43:49.719Z,100210.25
2019-03-31T23:46:18.140Z,100214.38
2019-03-31T23:48:46.783Z,100214.23
2019-03-31T23:51:15.388Z,100213.08
2019-03-31T23:53:43.791Z,100206.13
2019-03-31T23:56:12.213Z,100219.35
2019-03-31T23:58:40.762Z,100217.39
